Time;durP1;ratioP1;P1;durP2;ratioP2;P2;SDS_P1;SDS_P2;PMS_P1;PMS_P2;Temp;Humidity;BMP_temperature;BMP_pressure;BME280_temperature;BME280_humidity;BME280_pressure;Samples;Min_cycle;Max_cycle;Signal;HPM_P1;HPM_P2
2021/12/21 00:00:12;;;;;;;41.38;22.02;;;;;;;;;;5078359;28;20084;-78
2021/12/21 00:02:38;;;;;;;41.90;21.10;;;;;;;;;;5077859;28;20039;-78
2021/12/21 00:05:04;;;;;;;41.72;23.10;;;;;;;;;;5090290;28;20097;-78
2021/12/21 00:07:30;;;;;;;46.88;22.00;;;;;;;;;;5087695;28;20367;-78
2021/12/21 00:09:56;;;;;;;42.28;21.00;;;;;;;;;;5070428;28;20036;-78
2021/12/21 00:12:26;;;;;;;44.17;23.13;;;;;;;;;;5070961;28;20082;-78
2021/12/21 00:15:05;;;;;;;61.75;28.33;;;;;;;;;;5076254;28;20028;-79
2021/12/21 00:23:18;;;;;;;52.33;25.15;;;;;;;;;;5077439;28;20055;-78
2021/12/21 00:25:32;;;;;;;48.17;23.70;;;;;;;;;;5068762;28;20044;-78
2021/12/21 00:27:58;;;;;;;46.90;23.10;;;;;;;;;;5069786;28;20032;-78
2021/12/21 00:30:24;;;;;;;51.67;24.75;;;;;;;;;;5070197;28;20033;-78
2021/12/21 00:32:50;;;;;;;52.03;24.77;;;;;;;;;;5073697;28;20031;-78
2021/12/21 00:35:16;;;;;;;53.38;25.45;;;;;;;;;;5070221;28;20062;-78
2021/12/21 00:37:43;;;;;;;53.28;25.42;;;;;;;;;;5077608;28;20115;-78
2021/12/21 00:40:10;;;;;;;51.35;25.40;;;;;;;;;;5090343;28;20062;-78
2021/12/21 00:42:36;;;;;;;48.90;25.52;;;;;;;;;;5090119;28;20095;-77
2021/12/21 00:45:03;;;;;;;49.55;25.85;;;;;;;;;;5090501;28;20033;-78
2021/12/21 00:47:29;;;;;;;48.83;24.20;;;;;;;;;;5079171;28;20038;-78
2021/12/21 00:50:00;;;;;;;48.42;23.63;;;;;;;;;;5082947;28;20032;-78
2021/12/21 00:52:27;;;;;;;50.07;25.67;;;;;;;;;;5073234;28;20036;-78
2021/12/21 00:54:53;;;;;;;47.80;24.45;;;;;;;;;;5086006;28;20106;-78
2021/12/21 00:57:19;;;;;;;46.08;22.52;;;;;;;;;;5079754;28;20056;-77
2021/12/21 00:59:45;;;;;;;54.20;26.25;;;;;;;;;;5074211;28;20032;-78
2021/12/21 01:02:11;;;;;;;48.15;24.08;;;;;;;;;;5079015;28;20041;-78
2021/12/21 01:04:43;;;;;;;49.75;25.10;;;;;;;;;;5082981;28;20145;-78
2021/12/21 01:07:35;;;;;;;57.80;27.63;;;;;;;;;;5089983;28;20032;-77
2021/12/21 01:12:57;;;;;;;48.13;25.05;;;;;;;;;;5089924;28;20047;-78
2021/12/21 01:18:04;;;;;;;52.90;26.38;;;;;;;;;;5083215;28;20041;-78
2021/12/21 01:20:41;;;;;;;45.17;22.50;;;;;;;;;;5077177;28;20051;-77
2021/12/21 01:25:48;;;;;;;48.95;23.85;;;;;;;;;;5089851;28;20148;-77
2021/12/21 01:31:01;;;;;;;53.17;26.45;;;;;;;;;;5089503;28;20055;-78
2021/12/21 01:36:15;;;;;;;50.33;23.40;;;;;;;;;;5069336;28;20046;-77
2021/12/21 01:38:53;;;;;;;45.72;23.52;;;;;;;;;;5069072;28;20055;-78
2021/12/21 01:49:39;;;;;;;47.00;23.90;;;;;;;;;;5068558;28;20074;-78
2021/12/21 01:52:07;;;;;;;49.33;24.80;;;;;;;;;;5069632;28;20052;-78
2021/12/21 01:54:33;;;;;;;47.17;23.83;;;;;;;;;;5081233;28;20622;-78
2021/12/21 01:56:59;;;;;;;55.63;26.27;;;;;;;;;;5079682;28;20479;-78
2021/12/21 01:59:25;;;;;;;55.03;28.25;;;;;;;;;;5077479;28;20138;-78
2021/12/21 02:01:51;;;;;;;52.47;27.20;;;;;;;;;;5089545;28;20062;-78
2021/12/21 02:04:17;;;;;;;50.63;26.65;;;;;;;;;;5082914;28;20390;-78
2021/12/21 02:06:44;;;;;;;46.05;24.45;;;;;;;;;;5069578;28;20048;-77
2021/12/21 02:09:11;;;;;;;57.67;26.98;;;;;;;;;;5072964;28;20029;-78
2021/12/21 02:11:37;;;;;;;50.80;26.10;;;;;;;;;;5073097;28;20041;-78
2021/12/21 02:14:06;;;;;;;51.40;25.45;;;;;;;;;;5075162;28;20040;-78
2021/12/21 02:19:31;;;;;;;59.10;28.38;;;;;;;;;;5073059;28;20039;-78
2021/12/21 02:22:07;;;;;;;51.03;26.67;;;;;;;;;;5079532;28;20466;-78
2021/12/21 02:24:46;;;;;;;57.53;28.58;;;;;;;;;;5093404;28;20032;-78
2021/12/21 02:27:27;;;;;;;56.03;26.40;;;;;;;;;;5087977;28;20032;-78
2021/12/21 02:29:53;;;;;;;57.22;27.92;;;;;;;;;;5079814;28;20035;-78
2021/12/21 02:32:20;;;;;;;59.00;27.58;;;;;;;;;;5093130;28;20068;-78
2021/12/21 02:34:46;;;;;;;54.75;24.98;;;;;;;;;;5086996;28;20113;-78
2021/12/21 02:37:12;;;;;;;40.53;19.35;;;;;;;;;;5072567;28;20036;-78
2021/12/21 02:39:39;;;;;;;43.60;20.63;;;;;;;;;;5072779;28;20052;-78
2021/12/21 02:42:06;;;;;;;41.75;19.90;;;;;;;;;;5080672;28;20032;-78
2021/12/21 02:44:32;;;;;;;56.08;24.55;;;;;;;;;;5072462;28;20028;-78
2021/12/21 02:46:58;;;;;;;52.90;23.55;;;;;;;;;;5076570;28;20870;-78
2021/12/21 02:49:24;;;;;;;39.35;20.05;;;;;;;;;;5074719;28;20032;-78
2021/12/21 02:51:50;;;;;;;35.33;18.35;;;;;;;;;;5081351;28;20043;-78
2021/12/21 02:54:17;;;;;;;41.53;19.98;;;;;;;;;;5072698;28;20028;-78
2021/12/21 02:56:43;;;;;;;47.70;21.85;;;;;;;;;;5084556;28;20513;-78
2021/12/21 02:59:10;;;;;;;41.78;19.95;;;;;;;;;;5089263;28;20028;-78
2021/12/21 03:01:36;;;;;;;40.63;20.65;;;;;;;;;;5089401;28;20561;-77
2021/12/21 03:04:03;;;;;;;56.05;27.13;;;;;;;;;;5072242;28;20048;-78
2021/12/21 03:08:57;;;;;;;54.45;27.75;;;;;;;;;;5092976;28;20588;-77
2021/12/21 03:11:47;;;;;;;53.60;26.38;;;;;;;;;;5084486;28;20028;-78
2021/12/21 03:14:14;;;;;;;61.45;28.15;;;;;;;;;;5088890;28;20100;-77
2021/12/21 03:16:40;;;;;;;52.33;24.20;;;;;;;;;;5072247;28;20115;-77
2021/12/21 03:19:08;;;;;;;58.45;28.98;;;;;;;;;;5071803;28;20032;-77
2021/12/21 03:21:35;;;;;;;53.60;25.92;;;;;;;;;;5071791;28;20709;-77
2021/12/21 03:24:01;;;;;;;55.50;25.58;;;;;;;;;;5090802;28;20462;-77
2021/12/21 03:26:28;;;;;;;57.95;28.50;;;;;;;;;;5089412;28;20497;-77
2021/12/21 03:28:54;;;;;;;48.63;24.70;;;;;;;;;;5078434;28;20039;-78
2021/12/21 03:31:21;;;;;;;52.70;26.58;;;;;;;;;;5090935;28;20032;-78
2021/12/21 03:33:47;;;;;;;59.90;27.95;;;;;;;;;;5084161;28;20040;-77
2021/12/21 03:36:16;;;;;;;56.42;26.35;;;;;;;;;;5081102;28;20496;-77
2021/12/21 03:38:47;;;;;;;58.63;27.30;;;;;;;;;;5071747;28;20691;-78
2021/12/21 03:41:15;;;;;;;57.60;27.73;;;;;;;;;;5072497;28;20074;-77
2021/12/21 03:43:41;;;;;;;51.13;24.75;;;;;;;;;;5087344;28;20020;-77
2021/12/21 03:46:10;;;;;;;61.03;27.42;;;;;;;;;;5091370;28;20063;-77
2021/12/21 03:48:38;;;;;;;53.10;26.88;;;;;;;;;;5073242;28;20032;-78
2021/12/21 03:51:04;;;;;;;58.00;28.10;;;;;;;;;;5075405;28;20398;-78
2021/12/21 03:53:30;;;;;;;54.15;26.73;;;;;;;;;;5070423;28;20090;-77
2021/12/21 03:56:10;;;;;;;57.00;27.45;;;;;;;;;;5070966;28;20406;-77
2021/12/21 03:58:36;;;;;;;58.10;26.65;;;;;;;;;;5082832;28;20016;-78
2021/12/21 04:01:02;;;;;;;61.80;30.38;;;;;;;;;;5071255;28;20045;-77
2021/12/21 04:03:28;;;;;;;57.25;27.15;;;;;;;;;;5070766;28;20036;-77
2021/12/21 04:05:54;;;;;;;52.67;26.48;;;;;;;;;;5075719;28;20048;-78
2021/12/21 04:08:20;;;;;;;54.03;26.50;;;;;;;;;;5091230;28;20024;-77
2021/12/21 04:10:46;;;;;;;57.50;28.40;;;;;;;;;;5085251;28;20037;-77
2021/12/21 04:13:12;;;;;;;56.20;27.05;;;;;;;;;;5071043;28;20035;-77
2021/12/21 04:15:42;;;;;;;56.83;27.85;;;;;;;;;;5081176;28;20058;-78
2021/12/21 04:18:11;;;;;;;57.22;29.75;;;;;;;;;;5082646;28;20031;-77
2021/12/21 04:20:38;;;;;;;53.75;26.65;;;;;;;;;;5070519;28;20037;-78
2021/12/21 04:23:04;;;;;;;55.38;26.50;;;;;;;;;;5071130;28;20033;-78
2021/12/21 04:25:30;;;;;;;58.13;28.92;;;;;;;;;;5072163;28;20064;-77
2021/12/21 04:27:56;;;;;;;55.13;28.10;;;;;;;;;;5080327;28;20113;-77
2021/12/21 04:30:22;;;;;;;59.20;28.10;;;;;;;;;;5086963;28;20036;-78
2021/12/21 04:32:48;;;;;;;57.38;27.77;;;;;;;;;;5070654;28;20142;-78
2021/12/21 04:35:20;;;;;;;55.90;27.02;;;;;;;;;;5073711;28;20706;-77
2021/12/21 04:37:55;;;;;;;49.93;25.20;;;;;;;;;;5070364;28;20031;-77
2021/12/21 04:40:25;;;;;;;47.55;23.92;;;;;;;;;;5077877;28;20028;-77
2021/12/21 04:42:51;;;;;;;43.50;22.33;;;;;;;;;;5070606;28;20525;-77
2021/12/21 04:45:18;;;;;;;42.45;21.65;;;;;;;;;;5084458;28;20024;-77
2021/12/21 04:47:44;;;;;;;40.47;20.08;;;;;;;;;;5070158;28;20040;-78
2021/12/21 04:50:11;;;;;;;44.03;22.40;;;;;;;;;;5077231;28;20052;-78
2021/12/21 04:52:37;;;;;;;40.88;19.17;;;;;;;;;;5082106;28;20478;-78
2021/12/21 04:55:04;;;;;;;40.00;21.67;;;;;;;;;;5073637;28;20031;-78
2021/12/21 04:57:30;;;;;;;48.60;23.13;;;;;;;;;;5076951;28;20135;-77
2021/12/21 04:59:56;;;;;;;44.83;21.75;;;;;;;;;;5069992;28;20107;-77
2021/12/21 05:02:23;;;;;;;37.35;19.95;;;;;;;;;;5069601;28;20040;-78
2021/12/21 05:04:49;;;;;;;33.35;16.92;;;;;;;;;;5069662;28;20020;-77
2021/12/21 05:07:22;;;;;;;43.08;21.17;;;;;;;;;;5069398;28;20055;-77
2021/12/21 05:09:55;;;;;;;48.03;23.13;;;;;;;;;;5069963;28;20039;-77
2021/12/21 05:12:21;;;;;;;38.70;19.13;;;;;;;;;;5077004;28;20032;-77
2021/12/21 05:14:47;;;;;;;38.70;19.30;;;;;;;;;;5069993;28;20032;-77
2021/12/21 05:17:13;;;;;;;35.42;17.00;;;;;;;;;;5073143;28;20047;-77
2021/12/21 05:19:39;;;;;;;32.10;16.70;;;;;;;;;;5089959;28;20024;-77
2021/12/21 05:22:05;;;;;;;32.63;14.85;;;;;;;;;;5088081;28;20390;-77
2021/12/21 05:24:31;;;;;;;35.85;18.52;;;;;;;;;;5070017;28;20024;-77
2021/12/21 05:26:57;;;;;;;38.03;17.80;;;;;;;;;;5070275;28;20056;-77
2021/12/21 05:29:24;;;;;;;33.10;15.63;;;;;;;;;;5069281;28;20047;-77
2021/12/21 05:31:50;;;;;;;36.33;18.98;;;;;;;;;;5075362;28;20068;-77
2021/12/21 05:34:16;;;;;;;42.20;19.55;;;;;;;;;;5089487;28;20032;-77
2021/12/21 05:36:42;;;;;;;50.67;25.52;;;;;;;;;;5090030;28;20036;-77
2021/12/21 05:39:17;;;;;;;64.85;28.60;;;;;;;;;;5074918;28;20025;-77
2021/12/21 05:41:51;;;;;;;63.92;30.02;;;;;;;;;;5070526;28;20032;-77
2021/12/21 05:44:19;;;;;;;56.65;27.27;;;;;;;;;;5075357;28;20029;-77
2021/12/21 05:46:45;;;;;;;58.15;27.10;;;;;;;;;;5072619;28;20039;-77
2021/12/21 05:49:11;;;;;;;64.15;28.88;;;;;;;;;;5088964;28;20038;-77
2021/12/21 05:51:37;;;;;;;53.47;25.60;;;;;;;;;;5069452;28;20085;-77
2021/12/21 05:54:03;;;;;;;55.78;25.77;;;;;;;;;;5077476;28;20476;-77
2021/12/21 05:56:29;;;;;;;52.95;25.23;;;;;;;;;;5077745;28;20064;-77
2021/12/21 05:58:55;;;;;;;55.10;27.48;;;;;;;;;;5069307;28;20056;-78
2021/12/21 06:01:21;;;;;;;56.45;26.33;;;;;;;;;;5074268;28;20349;-78
2021/12/21 06:03:47;;;;;;;56.95;26.80;;;;;;;;;;5080909;28;20105;-77
2021/12/21 06:06:15;;;;;;;57.40;26.73;;;;;;;;;;5073759;28;20518;-77
2021/12/21 06:08:43;;;;;;;54.45;25.17;;;;;;;;;;5069282;28;20024;-78
2021/12/21 06:11:09;;;;;;;56.15;27.98;;;;;;;;;;5068730;28;20155;-78
2021/12/21 06:22:43;;;;;;;55.50;27.52;;;;;;;;;;5076634;28;21002;-77
2021/12/21 06:27:19;;;;;;;63.58;31.70;;;;;;;;;;5073930;28;20047;-77
2021/12/21 06:29:45;;;;;;;61.95;32.70;;;;;;;;;;5087732;28;20029;-77
2021/12/21 06:32:11;;;;;;;55.03;25.55;;;;;;;;;;5083511;28;20044;-77
2021/12/21 06:34:37;;;;;;;49.78;23.67;;;;;;;;;;5091276;28;20097;-77
2021/12/21 06:37:04;;;;;;;50.55;26.23;;;;;;;;;;5098546;28;20035;-76
2021/12/21 06:39:32;;;;;;;56.45;27.05;;;;;;;;;;5095260;28;20056;-77
2021/12/21 06:41:58;;;;;;;53.75;26.17;;;;;;;;;;5085618;28;20043;-77
2021/12/21 06:44:24;;;;;;;57.10;25.83;;;;;;;;;;5078215;28;20105;-78
2021/12/21 06:52:02;;;;;;;58.75;27.33;;;;;;;;;;5071860;28;20132;-77
2021/12/21 06:54:28;;;;;;;53.13;25.70;;;;;;;;;;5072187;28;20039;-77
2021/12/21 06:56:54;;;;;;;59.90;28.55;;;;;;;;;;5075994;28;20052;-77
2021/12/21 06:59:20;;;;;;;55.90;25.52;;;;;;;;;;5082748;28;20047;-76
2021/12/21 07:01:48;;;;;;;57.25;26.90;;;;;;;;;;5080552;28;20082;-77
2021/12/21 07:04:17;;;;;;;54.97;25.73;;;;;;;;;;5076080;28;20028;-76
2021/12/21 07:06:45;;;;;;;56.03;25.25;;;;;;;;;;5081637;28;20035;-77
2021/12/21 07:09:39;;;;;;;56.00;24.60;;;;;;;;;;5080427;28;20386;-76
2021/12/21 07:20:13;;;;;;;54.00;24.80;;;;;;;;;;5079503;28;20082;-78
2021/12/21 07:22:39;;;;;;;56.17;25.33;;;;;;;;;;5081504;28;20374;-78
2021/12/21 07:25:05;;;;;;;47.47;24.00;;;;;;;;;;5072049;28;20043;-78
2021/12/21 07:27:31;;;;;;;52.25;24.27;;;;;;;;;;5081717;28;20044;-78
2021/12/21 07:29:57;;;;;;;47.47;23.20;;;;;;;;;;5079586;28;20063;-77
2021/12/21 07:32:23;;;;;;;57.03;24.65;;;;;;;;;;5087689;28;20031;-77
2021/12/21 07:34:49;;;;;;;58.58;26.45;;;;;;;;;;5101509;28;20763;-78
2021/12/21 07:37:15;;;;;;;54.17;23.52;;;;;;;;;;5080773;28;20044;-77
2021/12/21 07:39:41;;;;;;;49.28;25.20;;;;;;;;;;5085349;28;20028;-77
2021/12/21 07:42:07;;;;;;;52.67;26.65;;;;;;;;;;5076407;28;20466;-78
2021/12/21 07:44:34;;;;;;;49.97;23.90;;;;;;;;;;5076415;28;20028;-78
2021/12/21 07:47:00;;;;;;;64.57;29.20;;;;;;;;;;5078651;28;20036;-78
2021/12/21 07:49:26;;;;;;;56.30;27.10;;;;;;;;;;5080893;28;20391;-77
2021/12/21 07:51:52;;;;;;;53.17;26.10;;;;;;;;;;5085383;28;20115;-78
2021/12/21 07:54:18;;;;;;;53.22;25.85;;;;;;;;;;5083149;28;20035;-77
2021/12/21 07:56:45;;;;;;;57.35;27.65;;;;;;;;;;5080897;28;20056;-77
2021/12/21 07:59:11;;;;;;;58.90;27.52;;;;;;;;;;5074814;28;20024;-77
2021/12/21 08:01:38;;;;;;;53.90;27.50;;;;;;;;;;5075932;28;20043;-77
2021/12/21 08:04:07;;;;;;;59.10;27.33;;;;;;;;;;5082098;28;20731;-77
2021/12/21 08:06:33;;;;;;;54.63;23.85;;;;;;;;;;5083942;28;20078;-77
2021/12/21 08:09:01;;;;;;;58.28;24.35;;;;;;;;;;5083102;28;20035;-77
2021/12/21 08:14:03;;;;;;;44.30;23.58;;;;;;;;;;5078108;28;20039;-77
2021/12/21 08:16:29;;;;;;;58.83;27.27;;;;;;;;;;5077847;28;20037;-77
2021/12/21 08:18:55;;;;;;;57.80;27.75;;;;;;;;;;5074987;28;20036;-77
2021/12/21 08:21:24;;;;;;;56.45;27.15;;;;;;;;;;5085737;28;20031;-77
2021/12/21 08:23:50;;;;;;;56.67;25.08;;;;;;;;;;5078317;28;20806;-77
2021/12/21 08:26:16;;;;;;;54.15;26.02;;;;;;;;;;5077603;28;20036;-76
2021/12/21 08:28:42;;;;;;;57.58;26.67;;;;;;;;;;5072728;28;20040;-76
2021/12/21 08:31:12;;;;;;;58.55;28.35;;;;;;;;;;5070924;28;20051;-77
2021/12/21 08:33:38;;;;;;;56.88;26.42;;;;;;;;;;5070936;28;20024;-77
2021/12/21 08:36:05;;;;;;;56.72;27.67;;;;;;;;;;5071581;28;20041;-76
2021/12/21 08:38:32;;;;;;;50.63;25.15;;;;;;;;;;5081382;28;20028;-77
2021/12/21 08:41:00;;;;;;;56.58;27.45;;;;;;;;;;5073796;28;20542;-77
2021/12/21 08:43:28;;;;;;;55.60;24.88;;;;;;;;;;5086543;28;20031;-77
2021/12/21 08:45:55;;;;;;;52.83;25.42;;;;;;;;;;5090946;28;20036;-77
2021/12/21 08:48:22;;;;;;;51.30;27.65;;;;;;;;;;5098598;28;20028;-77
2021/12/21 08:50:49;;;;;;;54.05;24.73;;;;;;;;;;5096716;28;20463;-77
2021/12/21 08:53:15;;;;;;;54.33;23.48;;;;;;;;;;5087792;28;20062;-77
2021/12/21 08:55:42;;;;;;;46.47;22.95;;;;;;;;;;5078477;28;20531;-77
2021/12/21 08:58:08;;;;;;;50.03;23.75;;;;;;;;;;5072659;28;20024;-77
2021/12/21 09:00:35;;;;;;;48.03;24.48;;;;;;;;;;5081845;28;22027;-78
2021/12/21 09:03:01;;;;;;;51.88;22.73;;;;;;;;;;5073648;28;20020;-76
2021/12/21 09:05:30;;;;;;;44.10;21.38;;;;;;;;;;5073641;28;20124;-77
2021/12/21 09:07:56;;;;;;;50.97;24.60;;;;;;;;;;5084606;28;20359;-77
2021/12/21 09:10:23;;;;;;;50.40;26.38;;;;;;;;;;5073144;28;20051;-77
2021/12/21 09:12:50;;;;;;;49.97;24.52;;;;;;;;;;5075055;28;20206;-77
2021/12/21 09:15:17;;;;;;;51.78;24.95;;;;;;;;;;5095433;28;20032;-77
2021/12/21 09:17:44;;;;;;;53.47;23.00;;;;;;;;;;5075234;28;20037;-78
2021/12/21 09:20:13;;;;;;;58.65;26.05;;;;;;;;;;5080886;28;20024;-78
2021/12/21 09:22:39;;;;;;;50.40;24.65;;;;;;;;;;5072099;28;20025;-77
2021/12/21 09:25:05;;;;;;;52.38;23.20;;;;;;;;;;5089399;28;20028;-78
2021/12/21 09:27:31;;;;;;;49.35;24.40;;;;;;;;;;5089438;28;20125;-77
2021/12/21 09:29:57;;;;;;;49.30;22.65;;;;;;;;;;5099634;28;20422;-78
2021/12/21 09:32:24;;;;;;;48.35;22.65;;;;;;;;;;5088746;28;20390;-77
2021/12/21 09:34:50;;;;;;;51.08;23.98;;;;;;;;;;5075832;28;20032;-77
2021/12/21 09:37:19;;;;;;;49.70;23.75;;;;;;;;;;5082553;28;20039;-77
2021/12/21 09:39:47;;;;;;;50.10;24.00;;;;;;;;;;5075469;28;20028;-76
2021/12/21 09:42:14;;;;;;;45.60;21.08;;;;;;;;;;5081865;28;20384;-77
2021/12/21 09:44:40;;;;;;;43.33;21.15;;;;;;;;;;5075522;28;20036;-77
2021/12/21 09:47:09;;;;;;;43.50;22.65;;;;;;;;;;5094907;28;20036;-76
2021/12/21 09:49:35;;;;;;;43.85;21.67;;;;;;;;;;5084626;28;20032;-76
2021/12/21 09:52:01;;;;;;;45.47;22.00;;;;;;;;;;5090823;28;20036;-76
2021/12/21 09:54:28;;;;;;;43.78;22.02;;;;;;;;;;5081901;28;20590;-77
2021/12/21 09:56:54;;;;;;;42.85;20.92;;;;;;;;;;5068012;28;20051;-77
2021/12/21 09:59:20;;;;;;;42.47;21.25;;;;;;;;;;5069183;28;20040;-77
2021/12/21 10:01:46;;;;;;;41.90;20.65;;;;;;;;;;5080806;28;20097;-77
2021/12/21 10:04:12;;;;;;;49.65;22.00;;;;;;;;;;5070068;28;20474;-77
2021/12/21 10:06:47;;;;;;;47.88;24.25;;;;;;;;;;5076836;28;20040;-77
2021/12/21 10:09:13;;;;;;;47.38;24.85;;;;;;;;;;5074325;28;20382;-78
2021/12/21 10:11:48;;;;;;;51.83;24.48;;;;;;;;;;5073925;28;20040;-77
2021/12/21 10:14:15;;;;;;;51.75;23.70;;;;;;;;;;5077858;28;20039;-77
2021/12/21 10:16:42;;;;;;;43.55;21.63;;;;;;;;;;5079984;28;20039;-77
2021/12/21 10:19:08;;;;;;;44.50;23.50;;;;;;;;;;5080863;28;20386;-77
2021/12/21 10:21:43;;;;;;;49.63;22.33;;;;;;;;;;5083904;28;20044;-78
2021/12/21 10:24:10;;;;;;;46.13;20.85;;;;;;;;;;5083001;28;20153;-77
2021/12/21 10:26:36;;;;;;;41.35;20.95;;;;;;;;;;5076415;28;20118;-77
2021/12/21 10:29:08;;;;;;;44.10;23.20;;;;;;;;;;5073326;28;20028;-77
2021/12/21 10:31:36;;;;;;;;;;;;;;;;;;5086613;28;20050;-77
2021/12/21 10:34:03;;;;;;;33.42;18.08;;;;;;;;;;5096714;28;19912;-77
2021/12/21 10:36:30;;;;;;;29.92;17.45;;;;;;;;;;5095634;28;20463;-77
2021/12/21 10:38:57;;;;;;;32.55;19.00;;;;;;;;;;5084079;28;21062;-78
2021/12/21 10:41:39;;;;;;;66.03;34.88;;;;;;;;;;5075242;28;20077;-77
2021/12/21 10:44:07;;;;;;;84.95;45.83;;;;;;;;;;5096101;28;20073;-78
2021/12/21 10:46:34;;;;;;;44.13;24.17;;;;;;;;;;5089826;28;20543;-77
2021/12/21 10:49:08;;;;;;;38.10;22.13;;;;;;;;;;5087725;28;20032;-77
2021/12/21 10:51:34;;;;;;;61.92;35.80;;;;;;;;;;5096063;28;20052;-77
2021/12/21 10:54:01;;;;;;;46.80;25.15;;;;;;;;;;5092043;28;20043;-77
2021/12/21 10:56:27;;;;;;;71.13;42.00;;;;;;;;;;5095783;28;20074;-77
2021/12/21 10:58:53;;;;;;;47.22;24.95;;;;;;;;;;5095119;28;20028;-77
2021/12/21 11:01:23;;;;;;;44.78;20.48;;;;;;;;;;5095347;28;20024;-78
2021/12/21 11:03:52;;;;;;;36.03;19.02;;;;;;;;;;5091924;28;20036;-77
2021/12/21 11:06:26;;;;;;;48.80;20.48;;;;;;;;;;5081761;28;20032;-77
2021/12/21 11:08:54;;;;;;;38.50;22.67;;;;;;;;;;5089658;28;20040;-77
2021/12/21 11:11:29;;;;;;;38.75;22.52;;;;;;;;;;5098310;28;20059;-77
2021/12/21 11:14:04;;;;;;;38.05;21.48;;;;;;;;;;5099630;28;20035;-78
2021/12/21 11:16:38;;;;;;;38.08;21.10;;;;;;;;;;5099329;28;20040;-77
2021/12/21 11:19:05;;;;;;;35.10;20.55;;;;;;;;;;5092931;28;20032;-78
2021/12/21 11:21:31;;;;;;;29.90;16.85;;;;;;;;;;5072251;28;20060;-77
2021/12/21 11:24:00;;;;;;;37.22;19.98;;;;;;;;;;5104663;28;20031;-77
2021/12/21 11:26:27;;;;;;;34.33;18.10;;;;;;;;;;5102673;28;20039;-77
2021/12/21 11:28:54;;;;;;;34.65;18.35;;;;;;;;;;5098007;28;20772;-77
2021/12/21 11:31:20;;;;;;;36.53;19.48;;;;;;;;;;5074774;28;20119;-77
2021/12/21 11:33:48;;;;;;;35.85;18.98;;;;;;;;;;5081902;28;20106;-77
2021/12/21 11:39:00;;;;;;;44.35;20.30;;;;;;;;;;5093197;28;20042;-77
2021/12/21 11:41:26;;;;;;;30.05;16.30;;;;;;;;;;5088417;28;20099;-77
2021/12/21 11:44:02;;;;;;;39.40;19.83;;;;;;;;;;5076543;28;20035;-78
2021/12/21 11:46:50;;;;;;;37.65;21.00;;;;;;;;;;5085270;28;20085;-77
2021/12/21 11:49:19;;;;;;;36.97;20.98;;;;;;;;;;5076865;28;20028;-77
2021/12/21 11:51:45;;;;;;;39.92;20.90;;;;;;;;;;5078636;28;20036;-77
2021/12/21 11:54:18;;;;;;;37.47;18.88;;;;;;;;;;5071673;28;20042;-78
2021/12/21 11:56:44;;;;;;;31.70;18.50;;;;;;;;;;5092166;28;20063;-78
2021/12/21 11:59:10;;;;;;;33.08;20.65;;;;;;;;;;5083122;28;20098;-78
2021/12/21 12:01:36;;;;;;;34.17;20.35;;;;;;;;;;5081868;28;20475;-78
2021/12/21 12:04:08;;;;;;;33.55;20.98;;;;;;;;;;5074786;28;20096;-77
2021/12/21 12:06:50;;;;;;;32.78;19.35;;;;;;;;;;5078235;28;20040;-77
2021/12/21 12:09:23;;;;;;;39.05;21.08;;;;;;;;;;5074234;28;20029;-77
2021/12/21 12:11:49;;;;;;;30.63;17.95;;;;;;;;;;5079140;28;20064;-77
2021/12/21 12:14:16;;;;;;;36.30;20.15;;;;;;;;;;5090978;28;20067;-77
2021/12/21 12:16:51;;;;;;;31.05;18.52;;;;;;;;;;5095110;28;20036;-77
2021/12/21 12:19:19;;;;;;;28.83;16.25;;;;;;;;;;5081345;28;20028;-78
2021/12/21 12:21:56;;;;;;;28.45;16.23;;;;;;;;;;5075941;28;20706;-78
2021/12/21 12:24:23;;;;;;;28.98;16.58;;;;;;;;;;5085424;28;20024;-77
2021/12/21 12:26:56;;;;;;;30.85;18.55;;;;;;;;;;5072100;28;20044;-78
2021/12/21 12:29:22;;;;;;;34.25;20.55;;;;;;;;;;5089389;28;20038;-78
2021/12/21 12:32:01;;;;;;;35.53;18.40;;;;;;;;;;5083751;28;20038;-77
2021/12/21 12:34:29;;;;;;;33.58;18.75;;;;;;;;;;5075203;28;20119;-77
2021/12/21 12:36:56;;;;;;;35.55;20.75;;;;;;;;;;5073901;28;20032;-77
2021/12/21 12:39:31;;;;;;;35.40;21.27;;;;;;;;;;5076972;28;20378;-77
2021/12/21 12:42:01;;;;;;;35.05;21.13;;;;;;;;;;5080563;28;20153;-77
2021/12/21 12:44:27;;;;;;;103.15;42.35;;;;;;;;;;5083917;28;20763;-78
2021/12/21 12:46:55;;;;;;;175.88;66.47;;;;;;;;;;5095702;28;20035;-78
2021/12/21 12:49:26;;;;;;;109.30;41.90;;;;;;;;;;5090403;28;20025;-78
2021/12/21 12:52:01;;;;;;;47.90;23.05;;;;;;;;;;5081046;28;20044;-78
2021/12/21 12:54:28;;;;;;;45.83;24.05;;;;;;;;;;5088028;28;20036;-77
2021/12/21 12:56:54;;;;;;;44.75;23.08;;;;;;;;;;5089427;28;20056;-77
2021/12/21 12:59:20;;;;;;;44.72;23.52;;;;;;;;;;5077757;28;20020;-77
2021/12/21 13:01:47;;;;;;;47.38;24.33;;;;;;;;;;5070056;28;20037;-77
2021/12/21 13:04:15;;;;;;;50.80;26.88;;;;;;;;;;5074153;28;20633;-77
2021/12/21 13:06:42;;;;;;;47.42;26.08;;;;;;;;;;5073202;28;20040;-78
2021/12/21 13:09:09;;;;;;;47.42;25.77;;;;;;;;;;5069743;28;20580;-78
2021/12/21 13:11:40;;;;;;;49.20;24.75;;;;;;;;;;5078709;28;20040;-77
2021/12/21 13:14:06;;;;;;;52.05;28.10;;;;;;;;;;5069854;28;20035;-78
2021/12/21 13:16:34;;;;;;;53.78;26.52;;;;;;;;;;5071723;28;20048;-77
2021/12/21 13:19:01;;;;;;;54.78;26.42;;;;;;;;;;5083321;28;20031;-78
2021/12/21 13:21:32;;;;;;;50.65;26.52;;;;;;;;;;5080205;28;20051;-77
2021/12/21 13:24:11;;;;;;;50.88;28.17;;;;;;;;;;5071947;28;20447;-78
2021/12/21 13:26:37;;;;;;;54.70;27.30;;;;;;;;;;5084584;28;20046;-78
2021/12/21 13:29:04;;;;;;;54.67;28.13;;;;;;;;;;5070523;28;20029;-77
2021/12/21 13:31:30;;;;;;;50.60;27.48;;;;;;;;;;5071556;28;20040;-77
2021/12/21 13:33:58;;;;;;;84.07;44.78;;;;;;;;;;5083119;28;20032;-77
2021/12/21 13:36:56;;;;;;;62.75;29.50;;;;;;;;;;5072998;28;20032;-77
2021/12/21 13:39:23;;;;;;;57.22;28.83;;;;;;;;;;5060592;28;20029;-77
2021/12/21 13:41:49;;;;;;;56.45;29.15;;;;;;;;;;5073173;28;20056;-77
2021/12/21 13:44:20;;;;;;;53.55;26.63;;;;;;;;;;5070061;28;20788;-78
2021/12/21 13:46:46;;;;;;;53.47;28.23;;;;;;;;;;5068808;28;20040;-77
2021/12/21 13:49:13;;;;;;;57.55;29.35;;;;;;;;;;5069371;28;20069;-77
2021/12/21 13:51:46;;;;;;;53.75;28.52;;;;;;;;;;5068815;28;20131;-77
2021/12/21 13:54:15;;;;;;;56.00;26.05;;;;;;;;;;5083608;28;20051;-78
2021/12/21 13:56:41;;;;;;;66.15;33.38;;;;;;;;;;5068944;28;20139;-77
2021/12/21 13:59:10;;;;;;;53.80;26.30;;;;;;;;;;5082958;28;20095;-77
2021/12/21 14:01:36;;;;;;;61.10;31.00;;;;;;;;;;5069179;28;20040;-77
2021/12/21 14:04:07;;;;;;;58.72;29.52;;;;;;;;;;5089102;28;20473;-78
2021/12/21 14:06:34;;;;;;;58.65;29.10;;;;;;;;;;5093074;28;20042;-77
2021/12/21 14:09:01;;;;;;;62.65;29.13;;;;;;;;;;5080644;28;20032;-77
2021/12/21 14:11:31;;;;;;;58.65;29.17;;;;;;;;;;5090839;28;21016;-78
2021/12/21 14:13:58;;;;;;;56.17;29.77;;;;;;;;;;5074446;28;20056;-77
2021/12/21 14:16:26;;;;;;;57.88;27.88;;;;;;;;;;5087871;28;20048;-77
2021/12/21 14:18:57;;;;;;;58.40;29.52;;;;;;;;;;5072584;28;20024;-77
2021/12/21 14:21:37;;;;;;;67.13;31.77;;;;;;;;;;5073171;28;20180;-77
2021/12/21 14:24:05;;;;;;;69.15;34.88;;;;;;;;;;5086215;28;20069;-78
2021/12/21 14:26:34;;;;;;;88.65;40.10;;;;;;;;;;5095229;28;20057;-78
2021/12/21 14:29:01;;;;;;;68.85;34.97;;;;;;;;;;5089413;28;20381;-77
2021/12/21 14:31:31;;;;;;;70.85;37.45;;;;;;;;;;5081251;28;20616;-77
2021/12/21 14:34:00;;;;;;;80.53;38.85;;;;;;;;;;5085365;28;20035;-78
2021/12/21 14:36:27;;;;;;;67.93;34.90;;;;;;;;;;5074565;28;20036;-79
2021/12/21 14:38:53;;;;;;;61.75;33.83;;;;;;;;;;5081068;28;20027;-78
2021/12/21 14:41:20;;;;;;;64.53;32.42;;;;;;;;;;5077591;28;20034;-77
2021/12/21 14:43:46;;;;;;;60.88;30.90;;;;;;;;;;5073978;28;20020;-78
2021/12/21 14:46:19;;;;;;;63.50;31.85;;;;;;;;;;5081472;28;20482;-77
2021/12/21 14:48:56;;;;;;;60.28;32.40;;;;;;;;;;5074717;28;20035;-77
2021/12/21 14:51:22;;;;;;;61.55;31.05;;;;;;;;;;5081830;28;20482;-77
2021/12/21 14:53:58;;;;;;;57.42;29.95;;;;;;;;;;5076914;28;20020;-78
2021/12/21 14:56:28;;;;;;;65.22;30.73;;;;;;;;;;5091508;28;20105;-77
2021/12/21 14:59:01;;;;;;;60.33;31.60;;;;;;;;;;5087085;28;20505;-77
2021/12/21 15:01:54;;;;;;;69.97;36.70;;;;;;;;;;5084164;28;20071;-77
2021/12/21 15:04:23;;;;;;;70.43;36.33;;;;;;;;;;5076087;28;20052;-78
2021/12/21 15:06:50;;;;;;;71.22;36.10;;;;;;;;;;5076452;28;20051;-77
2021/12/21 15:09:16;;;;;;;73.88;38.30;;;;;;;;;;5086925;28;20115;-76
2021/12/21 15:11:47;;;;;;;69.53;37.42;;;;;;;;;;5076653;28;20107;-77
2021/12/21 15:14:14;;;;;;;65.72;32.30;;;;;;;;;;5077750;28;20028;-77
2021/12/21 15:16:40;;;;;;;62.45;34.03;;;;;;;;;;5074874;28;20044;-77
2021/12/21 15:19:06;;;;;;;62.22;33.63;;;;;;;;;;5076050;28;20121;-77
2021/12/21 15:21:32;;;;;;;54.47;30.10;;;;;;;;;;5073286;28;20106;-78
2021/12/21 15:24:00;;;;;;;54.65;29.70;;;;;;;;;;5077213;28;20107;-78